sensor_id;sensor_type;location;lat;lon;timestamp;temperature;humidity
2851;DHT22;1433;49.976;8.342;2022-12-11T00:00:43;-2.00;99.90
2851;DHT22;1433;49.976;8.342;2022-12-11T00:03:10;-1.90;99.90
2851;DHT22;1433;49.976;8.342;2022-12-11T00:05:41;-1.80;99.90
2851;DHT22;1433;49.976;8.342;2022-12-11T00:08:08;-1.80;99.90
2851;DHT22;1433;49.976;8.342;2022-12-11T00:10:34;-1.70;99.90
2851;DHT22;1433;49.976;8.342;2022-12-11T00:13:01;-1.60;99.90
2851;DHT22;1433;49.976;8.342;2022-12-11T00:15:28;-1.60;99.90
2851;DHT22;1433;49.976;8.342;2022-12-11T00:17:54;-1.50;99.90
2851;DHT22;1433;49.976;8.342;2022-12-11T00:20:20;-1.50;99.90
2851;DHT22;1433;49.976;8.342;2022-12-11T00:22:47;-1.40;99.90
2851;DHT22;1433;49.976;8.342;2022-12-11T00:25:14;-1.40;99.90
2851;DHT22;1433;49.976;8.342;2022-12-11T00:27:41;-1.40;99.90
2851;DHT22;1433;49.976;8.342;2022-12-11T00:30:08;-1.40;99.90
2851;DHT22;1433;49.976;8.342;2022-12-11T00:32:35;-1.40;99.90
2851;DHT22;1433;49.976;8.342;2022-12-11T00:35:02;-1.40;99.90
2851;DHT22;1433;49.976;8.342;2022-12-11T00:37:29;-1.40;99.90
2851;DHT22;1433;49.976;8.342;2022-12-11T00:39:55;-1.40;99.90
2851;DHT22;1433;49.976;8.342;2022-12-11T00:42:22;-1.30;99.90
2851;DHT22;1433;49.976;8.342;2022-12-11T00:44:48;-1.30;99.90
2851;DHT22;1433;49.976;8.342;2022-12-11T00:47:15;-1.30;99.90
2851;DHT22;1433;49.976;8.342;2022-12-11T00:49:41;-1.30;99.90
2851;DHT22;1433;49.976;8.342;2022-12-11T00:52:08;-1.20;99.90
2851;DHT22;1433;49.976;8.342;2022-12-11T00:54:35;-1.20;99.90
2851;DHT22;1433;49.976;8.342;2022-12-11T00:57:02;-1.10;99.90
2851;DHT22;1433;49.976;8.342;2022-12-11T00:59:28;-1.10;99.90
2851;DHT22;1433;49.976;8.342;2022-12-11T01:01:54;-1.10;99.90
2851;DHT22;1433;49.976;8.342;2022-12-11T01:04:21;-1.00;99.90
2851;DHT22;1433;49.976;8.342;2022-12-11T01:06:50;-1.00;99.90
2851;DHT22;1433;49.976;8.342;2022-12-11T01:09:16;-1.00;99.90
2851;DHT22;1433;49.976;8.342;2022-12-11T01:12:01;-0.90;99.90
2851;DHT22;1433;49.976;8.342;2022-12-11T01:14:27;-0.90;99.90
2851;DHT22;1433;49.976;8.342;2022-12-11T01:16:53;-0.80;99.90
2851;DHT22;1433;49.976;8.342;2022-12-11T01:19:22;-0.80;99.90
2851;DHT22;1433;49.976;8.342;2022-12-11T01:21:49;-0.80;99.90
2851;DHT22;1433;49.976;8.342;2022-12-11T01:24:15;-0.70;99.90
2851;DHT22;1433;49.976;8.342;2022-12-11T01:26:41;-0.70;99.90
2851;DHT22;1433;49.976;8.342;2022-12-11T01:29:08;-0.70;99.90
2851;DHT22;1433;49.976;8.342;2022-12-11T01:31:34;-0.70;99.90
2851;DHT22;1433;49.976;8.342;2022-12-11T01:34:01;-0.60;99.90
2851;DHT22;1433;49.976;8.342;2022-12-11T01:36:27;-0.50;99.90
2851;DHT22;1433;49.976;8.342;2022-12-11T01:38:53;-0.50;99.90
2851;DHT22;1433;49.976;8.342;2022-12-11T01:41:20;-0.50;99.90
2851;DHT22;1433;49.976;8.342;2022-12-11T01:46:35;-0.50;99.90
2851;DHT22;1433;49.976;8.342;2022-12-11T01:49:05;-0.50;99.90
2851;DHT22;1433;49.976;8.342;2022-12-11T01:51:36;-0.50;99.90
2851;DHT22;1433;49.976;8.342;2022-12-11T01:54:07;-0.50;99.90
2851;DHT22;1433;49.976;8.342;2022-12-11T01:56:35;-0.40;99.90
2851;DHT22;1433;49.976;8.342;2022-12-11T01:59:04;-0.40;99.90
2851;DHT22;1433;49.976;8.342;2022-12-11T02:01:50;-0.30;99.90
2851;DHT22;1433;49.976;8.342;2022-12-11T02:04:28;-0.40;99.90
2851;DHT22;1433;49.976;8.342;2022-12-11T02:06:55;-0.50;99.90
2851;DHT22;1433;49.976;8.342;2022-12-11T02:09:26;-0.50;99.90
2851;DHT22;1433;49.976;8.342;2022-12-11T02:12:03;-0.60;99.90
2851;DHT22;1433;49.976;8.342;2022-12-11T02:15:02;-0.70;99.90
2851;DHT22;1433;49.976;8.342;2022-12-11T02:17:46;-0.60;99.90
2851;DHT22;1433;49.976;8.342;2022-12-11T02:26:01;-0.90;99.90
2851;DHT22;1433;49.976;8.342;2022-12-11T02:28:36;-0.90;99.90
2851;DHT22;1433;49.976;8.342;2022-12-11T02:36:39;-0.90;99.90
2851;DHT22;1433;49.976;8.342;2022-12-11T02:39:09;-0.90;99.90
2851;DHT22;1433;49.976;8.342;2022-12-11T02:41:40;-0.90;99.90
2851;DHT22;1433;49.976;8.342;2022-12-11T02:44:10;-0.90;99.90
2851;DHT22;1433;49.976;8.342;2022-12-11T02:46:38;-0.90;99.90
2851;DHT22;1433;49.976;8.342;2022-12-11T02:49:06;-0.90;99.90
2851;DHT22;1433;49.976;8.342;2022-12-11T02:51:37;-0.90;99.90
2851;DHT22;1433;49.976;8.342;2022-12-11T02:54:08;-0.90;99.90
2851;DHT22;1433;49.976;8.342;2022-12-11T02:56:39;-0.90;99.90
2851;DHT22;1433;49.976;8.342;2022-12-11T02:59:20;-0.80;99.90
2851;DHT22;1433;49.976;8.342;2022-12-11T03:01:49;-0.80;99.90
2851;DHT22;1433;49.976;8.342;2022-12-11T03:04:15;-0.80;99.90
2851;DHT22;1433;49.976;8.342;2022-12-11T03:06:48;-0.70;99.90
2851;DHT22;1433;49.976;8.342;2022-12-11T03:09:16;-0.70;99.90
2851;DHT22;1433;49.976;8.342;2022-12-11T03:11:42;-0.70;99.90
2851;DHT22;1433;49.976;8.342;2022-12-11T03:14:09;-0.70;99.90
2851;DHT22;1433;49.976;8.342;2022-12-11T03:16:38;-0.70;99.90
2851;DHT22;1433;49.976;8.342;2022-12-11T03:22:07;-0.70;99.90
2851;DHT22;1433;49.976;8.342;2022-12-11T03:24:50;-0.70;99.90
2851;DHT22;1433;49.976;8.342;2022-12-11T03:35:22;-0.60;99.90
2851;DHT22;1433;49.976;8.342;2022-12-11T03:37:53;-0.50;99.90
2851;DHT22;1433;49.976;8.342;2022-12-11T03:40:24;-0.50;99.90
2851;DHT22;1433;49.976;8.342;2022-12-11T03:42:52;-0.40;99.90
2851;DHT22;1433;49.976;8.342;2022-12-11T03:45:21;-0.40;99.90
2851;DHT22;1433;49.976;8.342;2022-12-11T03:47:52;-0.40;99.90
2851;DHT22;1433;49.976;8.342;2022-12-11T03:50:23;-0.40;99.90
2851;DHT22;1433;49.976;8.342;2022-12-11T03:52:51;-0.40;99.90
2851;DHT22;1433;49.976;8.342;2022-12-11T03:55:20;-0.30;99.90
2851;DHT22;1433;49.976;8.342;2022-12-11T03:57:47;-0.30;99.90
2851;DHT22;1433;49.976;8.342;2022-12-11T04:00:17;-0.30;99.90
2851;DHT22;1433;49.976;8.342;2022-12-11T04:02:44;-0.30;99.90
2851;DHT22;1433;49.976;8.342;2022-12-11T04:05:13;-0.30;99.90
2851;DHT22;1433;49.976;8.342;2022-12-11T04:07:39;-0.30;99.90
2851;DHT22;1433;49.976;8.342;2022-12-11T04:10:06;-0.20;99.90
2851;DHT22;1433;49.976;8.342;2022-12-11T04:12:32;-0.20;99.90
2851;DHT22;1433;49.976;8.342;2022-12-11T04:14:58;-0.20;99.90
2851;DHT22;1433;49.976;8.342;2022-12-11T04:17:29;-0.20;99.90
2851;DHT22;1433;49.976;8.342;2022-12-11T04:20:15;-0.20;99.90
2851;DHT22;1433;49.976;8.342;2022-12-11T04:23:05;-0.20;99.90
2851;DHT22;1433;49.976;8.342;2022-12-11T04:25:50;-0.30;99.90
2851;DHT22;1433;49.976;8.342;2022-12-11T04:28:16;-0.30;99.90
2851;DHT22;1433;49.976;8.342;2022-12-11T04:30:48;-0.30;99.90
2851;DHT22;1433;49.976;8.342;2022-12-11T04:33:15;-0.40;99.90
2851;DHT22;1433;49.976;8.342;2022-12-11T04:35:41;-0.40;99.90
2851;DHT22;1433;49.976;8.342;2022-12-11T04:38:08;-0.40;99.90
2851;DHT22;1433;49.976;8.342;2022-12-11T04:40:34;-0.50;99.90
2851;DHT22;1433;49.976;8.342;2022-12-11T04:43:00;-0.50;99.90
2851;DHT22;1433;49.976;8.342;2022-12-11T04:45:27;-0.50;99.90
2851;DHT22;1433;49.976;8.342;2022-12-11T04:47:53;-0.60;99.90
2851;DHT22;1433;49.976;8.342;2022-12-11T04:50:19;-0.60;99.90
2851;DHT22;1433;49.976;8.342;2022-12-11T04:52:46;-0.60;99.90
2851;DHT22;1433;49.976;8.342;2022-12-11T04:55:12;-0.60;99.90
2851;DHT22;1433;49.976;8.342;2022-12-11T04:57:38;-0.60;99.90
2851;DHT22;1433;49.976;8.342;2022-12-11T05:00:07;-0.50;99.90
2851;DHT22;1433;49.976;8.342;2022-12-11T05:02:36;-0.50;99.90
2851;DHT22;1433;49.976;8.342;2022-12-11T05:05:04;-0.50;99.90
2851;DHT22;1433;49.976;8.342;2022-12-11T05:07:31;-0.50;99.90
2851;DHT22;1433;49.976;8.342;2022-12-11T05:09:57;-0.50;99.90
2851;DHT22;1433;49.976;8.342;2022-12-11T05:12:24;-0.50;99.90
2851;DHT22;1433;49.976;8.342;2022-12-11T05:14:51;-0.40;99.90
2851;DHT22;1433;49.976;8.342;2022-12-11T05:17:21;-0.40;99.90
2851;DHT22;1433;49.976;8.342;2022-12-11T05:19:50;-0.50;99.90
2851;DHT22;1433;49.976;8.342;2022-12-11T05:22:17;-0.50;99.90
2851;DHT22;1433;49.976;8.342;2022-12-11T05:24:44;-0.50;99.90
2851;DHT22;1433;49.976;8.342;2022-12-11T05:27:11;-0.50;99.90
2851;DHT22;1433;49.976;8.342;2022-12-11T05:29:38;-0.40;99.90
2851;DHT22;1433;49.976;8.342;2022-12-11T05:32:04;-0.40;99.90
2851;DHT22;1433;49.976;8.342;2022-12-11T05:34:31;-0.40;99.90
2851;DHT22;1433;49.976;8.342;2022-12-11T05:36:57;-0.40;99.90
2851;DHT22;1433;49.976;8.342;2022-12-11T05:39:24;-0.30;99.90
2851;DHT22;1433;49.976;8.342;2022-12-11T05:41:50;-0.30;99.90
2851;DHT22;1433;49.976;8.342;2022-12-11T05:44:16;-0.30;99.90
2851;DHT22;1433;49.976;8.342;2022-12-11T05:46:43;-0.20;99.90
2851;DHT22;1433;49.976;8.342;2022-12-11T05:49:10;-0.20;99.90
2851;DHT22;1433;49.976;8.342;2022-12-11T05:51:36;-0.20;99.90
2851;DHT22;1433;49.976;8.342;2022-12-11T05:54:04;-0.20;99.90
2851;DHT22;1433;49.976;8.342;2022-12-11T05:56:32;-0.20;99.90
2851;DHT22;1433;49.976;8.342;2022-12-11T05:59:00;-0.20;99.90
2851;DHT22;1433;49.976;8.342;2022-12-11T06:01:38;-0.30;99.90
2851;DHT22;1433;49.976;8.342;2022-12-11T06:04:07;-0.30;99.90
2851;DHT22;1433;49.976;8.342;2022-12-11T06:06:35;-0.30;99.90
2851;DHT22;1433;49.976;8.342;2022-12-11T06:09:03;-0.30;99.90
2851;DHT22;1433;49.976;8.342;2022-12-11T06:11:31;-0.30;99.90
2851;DHT22;1433;49.976;8.342;2022-12-11T06:13:59;-0.30;99.90
2851;DHT22;1433;49.976;8.342;2022-12-11T06:16:26;-0.30;99.90
2851;DHT22;1433;49.976;8.342;2022-12-11T06:18:53;-0.30;99.90
2851;DHT22;1433;49.976;8.342;2022-12-11T06:21:21;-0.30;99.90
2851;DHT22;1433;49.976;8.342;2022-12-11T06:23:52;-0.30;99.90
2851;DHT22;1433;49.976;8.342;2022-12-11T06:26:19;-0.30;99.90
2851;DHT22;1433;49.976;8.342;2022-12-11T06:28:47;-0.30;99.90
2851;DHT22;1433;49.976;8.342;2022-12-11T06:31:14;-0.30;99.90
2851;DHT22;1433;49.976;8.342;2022-12-11T06:33:42;-0.30;99.90
2851;DHT22;1433;49.976;8.342;2022-12-11T06:36:16;-0.30;99.90
2851;DHT22;1433;49.976;8.342;2022-12-11T06:38:42;-0.30;99.90
2851;DHT22;1433;49.976;8.342;2022-12-11T06:41:09;-0.30;99.90
2851;DHT22;1433;49.976;8.342;2022-12-11T06:43:37;-0.30;99.90
2851;DHT22;1433;49.976;8.342;2022-12-11T06:46:07;-0.30;99.90
2851;DHT22;1433;49.976;8.342;2022-12-11T06:48:35;-0.50;99.90
2851;DHT22;1433;49.976;8.342;2022-12-11T06:51:06;-0.60;99.90
2851;DHT22;1433;49.976;8.342;2022-12-11T06:53:33;-0.50;99.90
2851;DHT22;1433;49.976;8.342;2022-12-11T06:56:11;-0.50;99.90
2851;DHT22;1433;49.976;8.342;2022-12-11T06:58:40;-0.60;99.90
2851;DHT22;1433;49.976;8.342;2022-12-11T07:01:16;-0.60;99.90
2851;DHT22;1433;49.976;8.342;2022-12-11T07:03:44;-0.60;99.90
2851;DHT22;1433;49.976;8.342;2022-12-11T07:06:11;-0.60;99.90
2851;DHT22;1433;49.976;8.342;2022-12-11T07:08:38;-0.50;99.90
2851;DHT22;1433;49.976;8.342;2022-12-11T07:11:07;-0.50;99.90
2851;DHT22;1433;49.976;8.342;2022-12-11T07:13:35;-0.40;99.90
2851;DHT22;1433;49.976;8.342;2022-12-11T07:16:03;-0.40;99.90
2851;DHT22;1433;49.976;8.342;2022-12-11T07:18:32;-0.40;99.90
2851;DHT22;1433;49.976;8.342;2022-12-11T07:20:58;-0.40;99.90
2851;DHT22;1433;49.976;8.342;2022-12-11T07:23:27;-0.30;99.90
2851;DHT22;1433;49.976;8.342;2022-12-11T07:25:54;-0.30;99.90
2851;DHT22;1433;49.976;8.342;2022-12-11T07:28:21;-0.30;99.90
2851;DHT22;1433;49.976;8.342;2022-12-11T07:30:48;-0.20;99.90
2851;DHT22;1433;49.976;8.342;2022-12-11T07:33:15;-0.20;99.90
2851;DHT22;1433;49.976;8.342;2022-12-11T07:35:42;-0.20;99.90
2851;DHT22;1433;49.976;8.342;2022-12-11T07:38:08;-0.20;99.90
2851;DHT22;1433;49.976;8.342;2022-12-11T07:40:34;-0.20;99.90
2851;DHT22;1433;49.976;8.342;2022-12-11T07:43:01;-0.10;99.90
2851;DHT22;1433;49.976;8.342;2022-12-11T07:45:28;-0.10;99.90
2851;DHT22;1433;49.976;8.342;2022-12-11T07:47:55;0.00;99.90
2851;DHT22;1433;49.976;8.342;2022-12-11T07:50:21;0.00;99.90
2851;DHT22;1433;49.976;8.342;2022-12-11T07:52:48;0.10;99.90
2851;DHT22;1433;49.976;8.342;2022-12-11T07:55:14;0.10;99.90
2851;DHT22;1433;49.976;8.342;2022-12-11T07:57:40;0.20;99.90
2851;DHT22;1433;49.976;8.342;2022-12-11T08:00:07;0.20;99.90
2851;DHT22;1433;49.976;8.342;2022-12-11T08:02:41;0.20;99.90
2851;DHT22;1433;49.976;8.342;2022-12-11T08:05:08;0.20;99.90
2851;DHT22;1433;49.976;8.342;2022-12-11T08:07:34;0.20;99.90
2851;DHT22;1433;49.976;8.342;2022-12-11T08:10:01;0.20;99.90
2851;DHT22;1433;49.976;8.342;2022-12-11T08:12:28;0.20;99.90
2851;DHT22;1433;49.976;8.342;2022-12-11T08:14:54;0.30;99.90
2851;DHT22;1433;49.976;8.342;2022-12-11T08:17:24;0.30;99.90
2851;DHT22;1433;49.976;8.342;2022-12-11T08:19:50;0.40;99.90
2851;DHT22;1433;49.976;8.342;2022-12-11T08:22:17;0.40;99.90
2851;DHT22;1433;49.976;8.342;2022-12-11T08:24:43;0.40;99.90
2851;DHT22;1433;49.976;8.342;2022-12-11T08:27:10;0.50;99.90
2851;DHT22;1433;49.976;8.342;2022-12-11T08:29:36;0.50;99.90
2851;DHT22;1433;49.976;8.342;2022-12-11T08:32:02;0.50;99.90
2851;DHT22;1433;49.976;8.342;2022-12-11T08:34:29;0.50;99.90
2851;DHT22;1433;49.976;8.342;2022-12-11T08:36:55;0.50;99.90
2851;DHT22;1433;49.976;8.342;2022-12-11T08:39:21;0.40;99.90
2851;DHT22;1433;49.976;8.342;2022-12-11T08:41:48;0.40;99.90
2851;DHT22;1433;49.976;8.342;2022-12-11T08:44:14;0.40;99.90
2851;DHT22;1433;49.976;8.342;2022-12-11T08:46:40;0.40;99.90
2851;DHT22;1433;49.976;8.342;2022-12-11T08:49:08;0.40;99.90
2851;DHT22;1433;49.976;8.342;2022-12-11T08:51:35;0.40;99.90
2851;DHT22;1433;49.976;8.342;2022-12-11T08:54:01;0.50;99.90
2851;DHT22;1433;49.976;8.342;2022-12-11T08:56:29;0.50;99.90
2851;DHT22;1433;49.976;8.342;2022-12-11T08:58:59;0.60;99.90
2851;DHT22;1433;49.976;8.342;2022-12-11T09:01:26;0.70;99.90
2851;DHT22;1433;49.976;8.342;2022-12-11T09:03:54;0.80;99.90
2851;DHT22;1433;49.976;8.342;2022-12-11T09:06:23;0.90;99.90
2851;DHT22;1433;49.976;8.342;2022-12-11T09:08:51;1.00;99.90
2851;DHT22;1433;49.976;8.342;2022-12-11T09:11:25;1.00;99.90
2851;DHT22;1433;49.976;8.342;2022-12-11T09:13:53;1.10;99.90
2851;DHT22;1433;49.976;8.342;2022-12-11T09:16:21;1.20;99.90
2851;DHT22;1433;49.976;8.342;2022-12-11T09:18:50;1.30;99.90
2851;DHT22;1433;49.976;8.342;2022-12-11T09:21:21;1.20;99.90
2851;DHT22;1433;49.976;8.342;2022-12-11T09:23:58;1.30;99.90
2851;DHT22;1433;49.976;8.342;2022-12-11T09:26:27;1.30;99.90
2851;DHT22;1433;49.976;8.342;2022-12-11T09:28:54;1.40;99.90
2851;DHT22;1433;49.976;8.342;2022-12-11T09:33:58;1.30;99.90
2851;DHT22;1433;49.976;8.342;2022-12-11T09:36:26;1.30;99.90
2851;DHT22;1433;49.976;8.342;2022-12-11T09:38:53;1.40;99.90
2851;DHT22;1433;49.976;8.342;2022-12-11T09:47:00;1.70;99.90
2851;DHT22;1433;49.976;8.342;2022-12-11T09:49:40;1.70;99.90
2851;DHT22;1433;49.976;8.342;2022-12-11T09:52:16;1.70;99.90
2851;DHT22;1433;49.976;8.342;2022-12-11T09:54:47;1.60;99.90
2851;DHT22;1433;49.976;8.342;2022-12-11T10:00:02;1.50;99.90
2851;DHT22;1433;49.976;8.342;2022-12-11T10:09:18;1.50;99.90
2851;DHT22;1433;49.976;8.342;2022-12-11T10:17:53;1.40;99.90
2851;DHT22;1433;49.976;8.342;2022-12-11T10:20:27;1.50;99.90
2851;DHT22;1433;49.976;8.342;2022-12-11T10:22:57;1.50;99.90
2851;DHT22;1433;49.976;8.342;2022-12-11T10:25:26;1.50;99.90
2851;DHT22;1433;49.976;8.342;2022-12-11T10:27:54;1.60;99.90
2851;DHT22;1433;49.976;8.342;2022-12-11T10:30:24;1.70;99.90
2851;DHT22;1433;49.976;8.342;2022-12-11T10:33:19;1.70;99.90
2851;DHT22;1433;49.976;8.342;2022-12-11T10:38:30;1.50;99.90
2851;DHT22;1433;49.976;8.342;2022-12-11T10:41:05;1.40;99.90
2851;DHT22;1433;49.976;8.342;2022-12-11T10:43:40;1.40;99.90
2851;DHT22;1433;49.976;8.342;2022-12-11T10:46:19;1.40;99.90
2851;DHT22;1433;49.976;8.342;2022-12-11T10:48:50;1.40;99.90
2851;DHT22;1433;49.976;8.342;2022-12-11T10:51:21;1.50;99.90
2851;DHT22;1433;49.976;8.342;2022-12-11T10:54:05;1.50;99.90
2851;DHT22;1433;49.976;8.342;2022-12-11T10:56:34;1.50;99.90
2851;DHT22;1433;49.976;8.342;2022-12-11T10:59:03;1.50;99.90
2851;DHT22;1433;49.976;8.342;2022-12-11T11:01:30;1.50;99.90
2851;DHT22;1433;49.976;8.342;2022-12-11T11:04:12;1.60;99.90
2851;DHT22;1433;49.976;8.342;2022-12-11T11:06:41;1.60;99.90
2851;DHT22;1433;49.976;8.342;2022-12-11T11:11:55;1.80;99.90
2851;DHT22;1433;49.976;8.342;2022-12-11T11:14:22;1.90;99.90
2851;DHT22;1433;49.976;8.342;2022-12-11T11:16:51;2.00;99.90
2851;DHT22;1433;49.976;8.342;2022-12-11T11:19:30;2.10;99.90
2851;DHT22;1433;49.976;8.342;2022-12-11T11:22:07;2.10;99.90
2851;DHT22;1433;49.976;8.342;2022-12-11T11:24:42;2.10;99.90
2851;DHT22;1433;49.976;8.342;2022-12-11T11:30:27;2.10;99.90
2851;DHT22;1433;49.976;8.342;2022-12-11T11:32:57;2.10;99.90
2851;DHT22;1433;49.976;8.342;2022-12-11T11:35:29;2.20;99.90
2851;DHT22;1433;49.976;8.342;2022-12-11T11:41:23;2.10;99.90
2851;DHT22;1433;49.976;8.342;2022-12-11T11:43:57;2.00;99.90
2851;DHT22;1433;49.976;8.342;2022-12-11T11:52:45;1.90;99.90
2851;DHT22;1433;49.976;8.342;2022-12-11T11:55:18;1.90;99.90
2851;DHT22;1433;49.976;8.342;2022-12-11T11:57:51;1.90;99.90
2851;DHT22;1433;49.976;8.342;2022-12-11T12:00:26;2.00;99.90
2851;DHT22;1433;49.976;8.342;2022-12-11T12:02:59;2.10;99.90
2851;DHT22;1433;49.976;8.342;2022-12-11T12:09:02;2.10;99.90
2851;DHT22;1433;49.976;8.342;2022-12-11T12:12:24;2.00;99.90
2851;DHT22;1433;49.976;8.342;2022-12-11T12:14:51;1.90;99.90
2851;DHT22;1433;49.976;8.342;2022-12-11T12:17:40;1.90;99.90
2851;DHT22;1433;49.976;8.342;2022-12-11T12:20:52;1.80;99.90
2851;DHT22;1433;49.976;8.342;2022-12-11T12:23:43;1.80;99.90
2851;DHT22;1433;49.976;8.342;2022-12-11T12:26:32;1.70;99.90
2851;DHT22;1433;49.976;8.342;2022-12-11T12:32:15;1.60;99.90
2851;DHT22;1433;49.976;8.342;2022-12-11T12:40:22;1.60;99.90
2851;DHT22;1433;49.976;8.342;2022-12-11T12:48:40;1.70;99.90
2851;DHT22;1433;49.976;8.342;2022-12-11T12:51:08;1.70;99.90
2851;DHT22;1433;49.976;8.342;2022-12-11T12:53:40;1.70;99.90
2851;DHT22;1433;49.976;8.342;2022-12-11T12:56:11;1.70;99.90
2851;DHT22;1433;49.976;8.342;2022-12-11T12:58:43;1.80;99.90
2851;DHT22;1433;49.976;8.342;2022-12-11T13:01:20;1.80;99.90
2851;DHT22;1433;49.976;8.342;2022-12-11T13:04:05;2.00;99.90
2851;DHT22;1433;49.976;8.342;2022-12-11T13:11:43;2.10;99.90
2851;DHT22;1433;49.976;8.342;2022-12-11T13:16:48;2.10;99.90
2851;DHT22;1433;49.976;8.342;2022-12-11T13:24:35;1.80;99.90
2851;DHT22;1433;49.976;8.342;2022-12-11T13:27:21;1.70;99.90
2851;DHT22;1433;49.976;8.342;2022-12-11T13:29:50;1.70;99.90
2851;DHT22;1433;49.976;8.342;2022-12-11T13:32:20;1.60;99.90
2851;DHT22;1433;49.976;8.342;2022-12-11T13:34:57;1.60;99.90
2851;DHT22;1433;49.976;8.342;2022-12-11T13:37:31;1.60;99.90
2851;DHT22;1433;49.976;8.342;2022-12-11T13:40:05;1.60;99.90
2851;DHT22;1433;49.976;8.342;2022-12-11T13:42:49;1.40;99.90
2851;DHT22;1433;49.976;8.342;2022-12-11T13:45:25;1.40;99.90
2851;DHT22;1433;49.976;8.342;2022-12-11T13:47:57;1.40;99.90
2851;DHT22;1433;49.976;8.342;2022-12-11T13:50:32;1.40;99.90
2851;DHT22;1433;49.976;8.342;2022-12-11T13:53:01;1.40;99.90
2851;DHT22;1433;49.976;8.342;2022-12-11T13:55:32;1.50;99.90
2851;DHT22;1433;49.976;8.342;2022-12-11T13:58:00;1.50;99.90
2851;DHT22;1433;49.976;8.342;2022-12-11T14:00:30;1.50;99.90
2851;DHT22;1433;49.976;8.342;2022-12-11T14:03:00;1.50;99.90
2851;DHT22;1433;49.976;8.342;2022-12-11T14:05:30;1.60;99.90
2851;DHT22;1433;49.976;8.342;2022-12-11T14:07:58;1.70;99.90
2851;DHT22;1433;49.976;8.342;2022-12-11T14:10:30;1.60;99.90
2851;DHT22;1433;49.976;8.342;2022-12-11T14:13:19;1.60;99.90
2851;DHT22;1433;49.976;8.342;2022-12-11T14:15:44;1.60;99.90
2851;DHT22;1433;49.976;8.342;2022-12-11T14:18:16;1.60;99.90
2851;DHT22;1433;49.976;8.342;2022-12-11T14:20:58;1.60;99.90
2851;DHT22;1433;49.976;8.342;2022-12-11T14:23:32;1.60;99.90
2851;DHT22;1433;49.976;8.342;2022-12-11T14:26:03;1.50;99.90
2851;DHT22;1433;49.976;8.342;2022-12-11T14:28:37;1.50;99.90
2851;DHT22;1433;49.976;8.342;2022-12-11T14:31:04;1.40;99.90
2851;DHT22;1433;49.976;8.342;2022-12-11T14:33:33;1.40;99.90
2851;DHT22;1433;49.976;8.342;2022-12-11T14:36:02;1.40;99.90
2851;DHT22;1433;49.976;8.342;2022-12-11T14:38:42;1.40;99.90
2851;DHT22;1433;49.976;8.342;2022-12-11T14:44:54;1.40;99.90
2851;DHT22;1433;49.976;8.342;2022-12-11T14:47:40;1.30;99.90
2851;DHT22;1433;49.976;8.342;2022-12-11T14:52:58;1.30;99.90
2851;DHT22;1433;49.976;8.342;2022-12-11T14:55:30;1.30;99.90
2851;DHT22;1433;49.976;8.342;2022-12-11T14:58:05;1.30;99.90
2851;DHT22;1433;49.976;8.342;2022-12-11T15:01:06;1.20;99.90
2851;DHT22;1433;49.976;8.342;2022-12-11T15:03:36;1.20;99.90
2851;DHT22;1433;49.976;8.342;2022-12-11T15:06:25;1.10;99.90
2851;DHT22;1433;49.976;8.342;2022-12-11T15:12:09;1.10;99.90
2851;DHT22;1433;49.976;8.342;2022-12-11T15:14:48;1.10;99.90
2851;DHT22;1433;49.976;8.342;2022-12-11T15:17:47;1.10;99.90
2851;DHT22;1433;49.976;8.342;2022-12-11T15:20:23;1.10;99.90
2851;DHT22;1433;49.976;8.342;2022-12-11T15:22:53;1.10;99.90
2851;DHT22;1433;49.976;8.342;2022-12-11T15:25:25;1.10;99.90
2851;DHT22;1433;49.976;8.342;2022-12-11T15:27:55;1.10;99.90
2851;DHT22;1433;49.976;8.342;2022-12-11T15:30:30;1.00;99.90
2851;DHT22;1433;49.976;8.342;2022-12-11T15:35:50;1.00;99.90
2851;DHT22;1433;49.976;8.342;2022-12-11T15:38:41;1.00;99.90
2851;DHT22;1433;49.976;8.342;2022-12-11T15:41:14;1.00;99.90
2851;DHT22;1433;49.976;8.342;2022-12-11T15:43:42;1.00;99.90
2851;DHT22;1433;49.976;8.342;2022-12-11T15:46:10;1.00;99.90
2851;DHT22;1433;49.976;8.342;2022-12-11T15:48:37;1.00;99.90
2851;DHT22;1433;49.976;8.342;2022-12-11T15:51:03;0.90;99.90
2851;DHT22;1433;49.976;8.342;2022-12-11T15:53:29;0.90;99.90
2851;DHT22;1433;49.976;8.342;2022-12-11T15:55:57;0.90;99.90
2851;DHT22;1433;49.976;8.342;2022-12-11T15:58:24;0.90;99.90
2851;DHT22;1433;49.976;8.342;2022-12-11T16:00:52;0.90;99.90
2851;DHT22;1433;49.976;8.342;2022-12-11T16:03:20;1.00;99.90
2851;DHT22;1433;49.976;8.342;2022-12-11T16:05:51;1.00;99.90
2851;DHT22;1433;49.976;8.342;2022-12-11T16:08:20;1.00;99.90
2851;DHT22;1433;49.976;8.342;2022-12-11T16:10:50;1.00;99.90
2851;DHT22;1433;49.976;8.342;2022-12-11T16:13:18;1.00;99.90
2851;DHT22;1433;49.976;8.342;2022-12-11T16:15:46;1.00;99.90
2851;DHT22;1433;49.976;8.342;2022-12-11T16:18:19;1.00;99.90
2851;DHT22;1433;49.976;8.342;2022-12-11T16:20:49;0.90;99.90
2851;DHT22;1433;49.976;8.342;2022-12-11T16:23:17;0.90;99.90
2851;DHT22;1433;49.976;8.342;2022-12-11T16:25:45;0.90;99.90
2851;DHT22;1433;49.976;8.342;2022-12-11T16:28:14;0.90;99.90
2851;DHT22;1433;49.976;8.342;2022-12-11T16:30:43;1.00;99.90
2851;DHT22;1433;49.976;8.342;2022-12-11T16:33:10;1.00;99.90
2851;DHT22;1433;49.976;8.342;2022-12-11T16:35:37;1.00;99.90
2851;DHT22;1433;49.976;8.342;2022-12-11T16:38:03;1.00;99.90
2851;DHT22;1433;49.976;8.342;2022-12-11T16:40:29;1.00;99.90
2851;DHT22;1433;49.976;8.342;2022-12-11T16:42:56;1.00;99.90
2851;DHT22;1433;49.976;8.342;2022-12-11T16:45:24;1.00;99.90
2851;DHT22;1433;49.976;8.342;2022-12-11T16:47:52;1.00;99.90
2851;DHT22;1433;49.976;8.342;2022-12-11T16:50:19;1.00;99.90
2851;DHT22;1433;49.976;8.342;2022-12-11T16:52:45;1.00;99.90
2851;DHT22;1433;49.976;8.342;2022-12-11T16:55:13;1.00;99.90
2851;DHT22;1433;49.976;8.342;2022-12-11T16:57:40;1.00;99.90
2851;DHT22;1433;49.976;8.342;2022-12-11T17:00:09;0.90;99.90
2851;DHT22;1433;49.976;8.342;2022-12-11T17:02:37;0.90;99.90
2851;DHT22;1433;49.976;8.342;2022-12-11T17:05:04;1.00;99.90
2851;DHT22;1433;49.976;8.342;2022-12-11T17:07:31;1.00;99.90
2851;DHT22;1433;49.976;8.342;2022-12-11T17:09:58;1.00;99.90
2851;DHT22;1433;49.976;8.342;2022-12-11T17:12:26;0.90;99.90
2851;DHT22;1433;49.976;8.342;2022-12-11T17:14:54;0.90;99.90
2851;DHT22;1433;49.976;8.342;2022-12-11T17:17:20;0.90;99.90
2851;DHT22;1433;49.976;8.342;2022-12-11T17:19:47;0.90;99.90
2851;DHT22;1433;49.976;8.342;2022-12-11T17:22:14;0.90;99.90
2851;DHT22;1433;49.976;8.342;2022-12-11T17:24:40;0.90;99.90
2851;DHT22;1433;49.976;8.342;2022-12-11T17:27:06;0.90;99.90
2851;DHT22;1433;49.976;8.342;2022-12-11T17:29:33;0.80;99.90
2851;DHT22;1433;49.976;8.342;2022-12-11T17:31:59;0.80;99.90
2851;DHT22;1433;49.976;8.342;2022-12-11T17:34:27;0.80;99.90
2851;DHT22;1433;49.976;8.342;2022-12-11T17:36:54;0.90;99.90
2851;DHT22;1433;49.976;8.342;2022-12-11T17:39:21;0.80;99.90
2851;DHT22;1433;49.976;8.342;2022-12-11T17:41:47;0.90;99.90
2851;DHT22;1433;49.976;8.342;2022-12-11T17:44:13;0.80;99.90
2851;DHT22;1433;49.976;8.342;2022-12-11T17:46:40;0.80;99.90
2851;DHT22;1433;49.976;8.342;2022-12-11T17:49:06;0.90;99.90
2851;DHT22;1433;49.976;8.342;2022-12-11T17:51:32;0.80;99.90
2851;DHT22;1433;49.976;8.342;2022-12-11T17:53:59;0.80;99.90
2851;DHT22;1433;49.976;8.342;2022-12-11T17:56:25;0.70;99.90
2851;DHT22;1433;49.976;8.342;2022-12-11T17:58:51;0.70;99.90
2851;DHT22;1433;49.976;8.342;2022-12-11T18:01:20;0.70;99.90
2851;DHT22;1433;49.976;8.342;2022-12-11T18:03:46;0.70;99.90
2851;DHT22;1433;49.976;8.342;2022-12-11T18:06:14;0.70;99.90
2851;DHT22;1433;49.976;8.342;2022-12-11T18:08:41;0.70;99.90
2851;DHT22;1433;49.976;8.342;2022-12-11T18:11:12;0.70;99.90
2851;DHT22;1433;49.976;8.342;2022-12-11T18:13:41;0.70;99.90
2851;DHT22;1433;49.976;8.342;2022-12-11T18:16:24;0.70;99.90
2851;DHT22;1433;49.976;8.342;2022-12-11T18:18:52;0.70;99.90